Latest Coastal Weather Observations for Truscott

IDD60701

Issued at 11:31 pm CST Saturday 1 August 2015 (issued every 10 minutes, with the page automatically refreshed every 10 minutes)

About coastal observations | Map of coastal stations | Coastal observations for NT | Marine services | Other Formats
Station Details ID: 001020 Name: TRUSCOTT Lat: -14.09 Lon: 126.39 Height: 51.0 m
Data from the previous 72 hours. | See also: Recent months at Truscott
Date/Time
CST
Temp

°C
Wind Pressure Rain
since 9am
mm
Weather Cloud Vis
km
Sea
Height
m
Swell
Dir
 
Speed
knots
Gust
knots
hPa Trend Height
m
Period
s
Dir
01/11:30pm 21.6 CALM 0 0 1015.4 - 0.0 - - 10 - - - -
01/11:00pm 21.8 CALM 0 0 1015.4 - 0.0 - - 10 - - - -
01/10:30pm 21.9 CALM 0 0 1014.8 - 0.0 - - 10 - - - -
01/10:00pm 22.2 CALM 0 0 1015.2 - 0.0 - - 6 - - - -
01/09:30pm 22.2 CALM 0 0 1015.1 - 0.0 - - 10 - - - -
01/09:00pm 22.7 SSW 2 3 1014.8 - 0.0 - - 10 - - - -
01/08:30pm 23.7 CALM 0 4 1014.3 - 0.0 - - 10 - - - -
01/08:00pm 24.3 CALM 0 0 1013.8 - 0.0 - - 10 - - - -
01/07:30pm 25.3 CALM 0 0 1013.0 - 0.0 - - 10 - - - -
01/07:00pm 27.0 NNW 2 4 1013.0 - 0.0 - - 10 - - - -
01/06:30pm 29.0 WNW 4 5 1012.8 - 0.0 - - 10 - - - -
01/06:00pm 29.6 WNW 4 7 1012.7 - 0.0 - - 10 - - - -
01/05:30pm 30.3 WNW 6 8 1012.6 - 0.0 - - 10 - - - -
01/05:00pm 30.5 NW 5 7 1012.6 - 0.0 - - 10 - - - -
01/04:30pm 29.6 NNW 7 9 1012.1 - 0.0 - - 10 - - - -
01/04:00pm 29.8 NW 8 11 1012.8 - 0.0 - - 10 - - - -
01/03:30pm 29.7 NNW 9 12 1013.0 - 0.0 - - 10 - - - -
01/02:30pm 29.4 NNW 10 13 1013.7 - 0.0 - - 10 - - - -
01/02:00pm 30.3 NNW 10 13 1014.2 - 0.0 - - 10 - - - -
01/01:30pm 31.0 NNW 8 11 1014.1 - 0.0 - - 10 - - - -
01/01:00pm 29.5 N 7 13 1015.3 - 0.0 - - 10 - - - -
01/12:30pm 30.7 NW 5 7 1015.5 - 0.0 - - 10 - - - -
01/12:00pm 29.4 W 4 7 1016.0 - 0.0 - - 10 - - - -
01/11:30am 28.7 SSW 5 7 1016.4 - 0.0 - - 10 - - - -
01/11:00am 27.9 SW 6 9 1016.7 - 0.0 - - 10 - - - -
01/10:30am 27.4 SW 6 9 1016.4 - 0.0 - - 10 - - - -
01/10:00am 25.8 SSW 3 6 1016.8 - 0.0 - - 10 - - - -
01/09:30am 24.5 SSW 5 8 1016.6 - 0.0 - - 10 - - - -
01/09:00am 23.1 SW 6 9 1016.1 - 0.0 - - 10 - - - -
01/08:30am 21.9 SSW 6 9 1015.8 - 0.0 - - 10 - - - -
01/08:00am 20.6 SSW 5 7 1015.5 - 0.0 - - 10 - - - -
01/07:30am 19.0 SSW 2 5 1014.9 - 0.0 - - 10 - - - -
01/07:00am 19.9 SSW 4 6 1015.1 - 0.0 - - 9 - - - -
01/06:30am 19.8 SW 5 6 1014.8 - 0.0 - - 6 - - - -
01/06:00am 20.3 SSW 6 7 1014.6 - 0.0 - - 10 - - - -
01/05:30am 20.8 SSW 5 6 1014.4 - 0.0 - - 9 - - - -
01/05:23am 20.9 SSW 6 7 1014.4 - 0.0 - - 10 - - - -
01/05:08am 21.0 SSW 5 7 1014.4 - 0.0 - - 5 - - - -
01/05:00am 20.8 SSW 6 8 1014.4 - 0.0 - - 10 - - - -
01/04:30am 20.7 SW 5 7 1013.9 - 0.0 - - 9 - - - -
01/04:00am 19.1 SW 1 4 1014.4 - 0.0 - - 10 - - - -
01/03:30am 20.7 SW 5 6 1014.4 - 0.0 - - 6 - - - -
01/03:00am 20.9 SSW 5 6 1014.5 - 0.0 - - 10 - - - -
01/02:56am 20.7 SSW 4 6 1014.6 - 0.0 - - 10 - - - -
01/02:41am 20.4 SSW 5 6 1014.7 - 0.0 - - 5 - - - -
01/02:30am 19.8 SSW 4 5 1014.7 - 0.0 - - 10 - - - -
01/02:00am 19.9 S 4 6 1014.7 - 0.0 - - 10 - - - -
01/01:55am 20.0 S 4 5 1014.7 - 0.0 - - 10 - - - -
01/01:45am 20.0 S 4 5 1014.8 - 0.0 - - 5 - - - -
01/01:30am 20.0 SSW 3 4 1014.3 - 0.0 - - 9 - - - -
01/01:00am 20.2 S 3 4 1014.8 - 0.0 - - 10 - - - -
01/12:30am 20.3 SSW 3 4 1014.8 - 0.0 - - 10 - - - -
01/12:00am 20.3 SSW 3 5 1015.0 - 0.0 - - 10 - - - -
 
Date/Time
CST
Temp

°C
Wind Pressure Rain
since 9am
mm
Weather Cloud Vis
km
Sea
Height
m
Swell
Dir
 
Speed
knots
Gust
knots
hPa Trend Height
m
Period
s
Dir
31/11:30pm 20.9 SW 3 4 1015.1 - 0.0 - - 9 - - - -
31/11:00pm 20.9 SW 3 5 1015.1 - 0.0 - - 10 - - - -
31/10:30pm 20.6 ESE 3 3 1014.6 - 0.0 - - 10 - - - -
31/10:00pm 22.2 S 2 3 1014.9 - 0.0 - - 9 - - - -
31/09:30pm 22.9 NE 3 4 1014.7 - 0.0 - - 10 - - - -
31/09:00pm 23.5 ENE 4 6 1014.5 - 0.0 - - 10 - - - -
31/08:41pm 24.2 ENE 4 5 1014.5 - 0.0 - - 10 - - - -
31/08:30pm 24.4 NE 5 6 1014.4 - 0.0 - - 5 - - - -
31/08:28pm 24.5 NE 5 8 1014.3 - 0.0 - - 5 - - - -
31/08:00pm 25.1 NE 6 9 1013.8 - 0.0 - - 10 - - - -
31/07:30pm 25.5 NE 8 12 1013.0 - 0.0 - - 10 - - - -
31/07:00pm 26.0 NNE 8 15 1013.0 - 0.0 - - 10 - - - -
31/06:48pm 26.4 NNE 8 13 1013.0 - 0.0 - - 10 - - - -
31/06:35pm 27.0 NNE 8 11 1012.7 - 0.0 - - 5 - - - -
31/06:30pm 27.2 NNE 9 12 1012.7 - 0.0 - - 10 - - - -
31/06:00pm 28.3 NNE 9 16 1012.5 - 0.0 - - 10 - - - -
31/05:30pm 28.6 NNE 10 16 1012.2 - 0.0 - - 10 - - - -
31/05:00pm 29.7 NNE 11 16 1012.1 - 0.0 - - 10 - - - -
31/04:30pm 30.5 ENE 10 15 1011.8 - 0.0 - - 10 - - - -
31/04:00pm 30.7 NE 10 14 1012.4 - 0.0 - - 10 - - - -
31/03:30pm 30.8 NE 9 15 1012.7 - 0.0 - - 10 - - - -
31/03:00pm 31.4 NE 10 16 1013.0 - 0.0 - - 10 - - - -
31/02:30pm 30.8 ENE 10 16 1013.6 - 0.0 - - 10 - - - -
31/02:00pm 31.2 NE 9 16 1014.0 - 0.0 - - 10 - - - -
31/01:30pm 31.8 E 9 18 1014.1 - 0.0 - - 10 - - - -
31/01:00pm 31.1 E 10 16 1014.9 - 0.0 - - 10 - - - -
31/12:30pm 30.2 E 12 19 1015.3 - 0.0 - - 10 - - - -
31/12:00pm 29.9 E 12 21 1015.8 - 0.0 - - 10 - - - -
31/11:30am 30.2 E 10 16 1015.9 - 0.0 - - 10 - - - -
31/11:00am 30.0 ESE 9 13 1016.2 - 0.0 - - 10 - - - -
31/10:30am 28.8 ESE 10 19 1016.1 - 0.0 - - 10 - - - -
31/10:00am 28.3 ESE 7 11 1016.4 - 0.0 - - 10 - - - -
31/09:30am 26.9 SE 6 12 1016.4 - 0.0 - - 10 - - - -
31/09:00am 25.6 SE 6 10 1016.1 - 0.0 - - 10 - - - -
31/08:30am 23.9 SE 6 9 1015.8 - 0.0 - - 10 - - - -
31/08:00am 22.9 SSE 6 9 1015.5 - 0.0 - - 10 - - - -
31/07:30am 22.0 SE 4 6 1014.9 - 0.0 - - 9 - - - -
31/07:00am 22.6 SE 5 7 1014.9 - 0.0 - - 10 - - - -
31/06:30am 23.2 SSE 6 8 1014.8 - 0.0 - - 10 - - - -
31/06:00am 22.9 SSE 5 7 1014.6 - 0.0 - - 9 - - - -
31/05:30am 22.0 SSE 5 6 1014.7 - 0.0 - - 10 - - - -
31/05:00am 22.1 SSE 5 6 1014.7 - 0.0 - - 10 - - - -
31/04:30am 22.2 SSE 5 6 1014.6 - 0.0 - - 10 - - - -
31/04:00am 22.6 SSE 5 7 1014.9 - 0.0 - - 10 - - - -
31/03:30am 22.6 SSE 5 6 1015.1 - 0.0 - - 10 - - - -
31/03:00am 22.8 SSE 5 6 1015.3 - 0.0 - - 10 - - - -
31/02:30am 22.8 SSE 5 7 1015.6 - 0.0 - - 10 - - - -
31/02:20am 22.5 SSE 5 6 1015.6 - 0.0 - - 5 - - - -
31/02:00am 22.6 SSE 5 6 1015.7 - 0.0 - - 8 - - - -
31/01:30am 23.0 SE 4 6 1015.7 - 0.0 - - 10 - - - -
31/01:00am 23.4 SE 5 8 1016.3 - 0.0 - - 10 - - - -
31/12:30am 22.6 ESE 4 5 1016.3 - 0.0 - - 10 - - - -
31/12:00am 23.1 ESE 4 6 1016.4 - 0.0 - - 10 - - - -
 
Date/Time
CST
Temp

°C
Wind Pressure Rain
since 9am
mm
Weather Cloud Vis
km
Sea
Height
m
Swell
Dir
 
Speed
knots
Gust
knots
hPa Trend Height
m
Period
s
Dir
30/11:30pm 23.2 ESE 4 5 1016.4 - 0.0 - - 10 - - - -
30/11:00pm 23.5 E 5 7 1016.5 - 0.0 - - 10 - - - -
30/10:30pm 24.1 E 5 6 1016.1 - 0.0 - - 10 - - - -
30/10:00pm 24.7 E 5 7 1016.2 - 0.0 - - 10 - - - -
30/09:30pm 25.3 ENE 5 8 1016.0 - 0.0 - - 10 - - - -
30/09:00pm 25.9 ENE 5 7 1015.6 - 0.0 - - 10 - - - -
30/08:30pm 26.2 ENE 7 10 1015.2 - 0.0 - - 10 - - - -
30/08:00pm 26.4 NE 5 10 1014.7 - 0.0 - - 10 - - - -
30/07:30pm 26.3 NNE 4 6 1014.0 - 0.0 - - 10 - - - -
30/07:00pm 28.1 NE 7 11 1014.2 - 0.0 - - 10 - - - -
30/06:30pm 29.1 NE 8 13 1013.9 - 0.0 - - 10 - - - -
30/06:00pm 29.9 NE 9 12 1013.7 - 0.0 - - 10 - - - -
30/05:30pm 30.7 ENE 9 15 1013.6 - 0.0 - - 10 - - - -
30/05:00pm 30.9 NE 10 17 1013.5 - 0.0 - - 10 - - - -
30/04:30pm 31.1 NE 10 15 1013.1 - 0.0 - - 10 - - - -
30/04:00pm 31.8 ENE 10 14 1013.8 - 0.0 - - 10 - - - -
30/03:30pm 31.3 NE 12 17 1014.1 - 0.0 - - 10 - - - -
30/03:00pm 32.0 NE 9 15 1014.6 - 0.0 - - 10 - - - -
30/02:30pm 31.6 ENE 8 15 1015.1 - 0.0 - - 10 - - - -
30/02:00pm 31.2 E 11 17 1015.6 - 0.0 - - 10 - - - -
30/01:30pm 31.2 E 10 17 1015.7 - 0.0 - - 10 - - - -
30/01:00pm 31.3 E 11 16 1016.6 - 0.0 - - 10 - - - -
30/12:30pm 30.4 E 13 19 1017.1 - 0.0 - - 10 - - - -
30/12:00pm 30.1 E 13 20 1017.5 - 0.0 - - 10 - - - -
30/11:30am 29.9 E 12 21 1017.7 - 0.0 - - 10 - - - -
30/11:00am 28.9 ESE 11 21 1017.9 - 0.0 - - 10 - - - -
30/10:30am 28.5 ESE 10 18 1017.7 - 0.0 - - 10 - - - -
30/10:00am 27.6 ESE 8 15 1018.1 - 0.0 - - 10 - - - -
30/09:30am 26.9 SE 8 12 1018.0 - 0.0 - - 10 - - - -
30/09:00am 25.6 SE 6 11 1017.5 - 0.0 - - 8 - - - -
30/08:30am 24.3 SE 6 9 1017.1 - 0.0 - - 8 - - - -
30/08:00am 23.3 SE 6 8 1016.9 - 0.0 - - 10 - - - -
30/07:30am 22.3 SE 5 8 1016.2 - 0.0 - - 10 - - - -
30/07:00am 21.9 SE 5 6 1016.3 - 0.0 - - 10 - - - -
30/06:40am 21.7 SE 4 6 1016.2 - 0.0 - - 9 - - - -
30/06:30am 21.9 SE 5 6 1016.2 - 0.0 - - 5 - - - -
30/06:22am 21.6 SE 5 6 1016.1 - 0.0 - - 5 - - - -
30/06:00am 21.5 SE 4 6 1016.0 - 0.0 - - 10 - - - -
30/05:30am 19.7 SSE 4 5 1015.9 - 0.0 - - 8 - - - -
30/05:00am 21.2 SE 4 6 1015.9 - 0.0 - - 10 - - - -
30/04:30am 21.2 SE 4 6 1015.6 - 0.0 - - 7 - - - -
30/04:00am 22.0 SSE 5 6 1016.1 - 0.0 - - 8 - - - -
30/03:30am 22.0 SSE 4 6 1016.2 - 0.0 - - 10 - - - -
30/03:00am 22.4 SSE 5 6 1016.4 - 0.0 - - 10 - - - -
30/02:30am 22.6 SSE 5 7 1016.6 - 0.0 - - 10 - - - -
30/02:21am 22.8 SSE 5 7 1016.7 - 0.0 - - 10 - - - -
30/02:07am 22.6 SSE 5 7 1016.7 - 0.0 - - 5 - - - -
30/02:00am 22.1 SSE 5 6 1016.7 - 0.0 - - 10 - - - -
30/01:52am 22.1 SSE 5 6 1016.7 - 0.0 - - 10 - - - -
30/01:34am 20.4 SSE 4 6 1016.9 - 0.0 - - 5 - - - -
30/01:30am 20.3 SSE 4 5 1016.7 - 0.0 - - 9 - - - -

Other Formats:

Comma delimited format used in spreadsheet applications
http://www.bom.gov.au/fwo/IDD60701/IDD60701.95101.axf

JavaScript Object Notation format (JSON) in row-major order
http://www.bom.gov.au/fwo/IDD60701/IDD60701.95101.json